Grantsdale, Montana
Current Conditions -  °F | °C
As of 7:53 PM on Monday 22 Dec 2014 (Local Time) from KMSO Reporting Station
Overcast Overcast  
Wind Chill: -2°   Ceiling: 8000
Heat Index:   Visibility: 10mi
Dew Point: -4°   Wind: 8mph
Humidity: 64%   Direction: 310°NW
Pressure: 30.23"   Gusts: NA
Location:  46.2°N, 114.13°W
Report Text: KMSO 230253Z 31007KT 10SM OVC080 02/M04 A3023 RMK AO2 SLP261 T00171044 51022
Loading
Personal Weather Stations






























Interactive Weather Map New forecast layout! Learn more

10-Day Weather Forecast

Advertisements
Track Severe Weather on mobile